createdAt,value
2019-04-13T00:01:49.706Z,23.90
2019-04-13T00:04:29.749Z,23.80
2019-04-13T00:06:56.161Z,23.80
2019-04-13T00:09:25.916Z,23.80
2019-04-13T00:12:13.530Z,23.80
2019-04-13T00:14:43.401Z,23.80
2019-04-13T00:17:13.161Z,23.90
2019-04-13T00:19:43.229Z,23.80
2019-04-13T00:22:16.537Z,23.90
2019-04-13T00:24:47.063Z,23.90
2019-04-13T00:27:16.874Z,23.90
2019-04-13T00:29:46.624Z,23.90
2019-04-13T00:32:17.305Z,23.90
2019-04-13T00:34:47.258Z,23.70
2019-04-13T00:37:17.014Z,23.90
2019-04-13T00:39:46.831Z,23.90
2019-04-13T00:42:17.891Z,23.90
2019-04-13T00:44:47.645Z,23.90
2019-04-13T00:47:17.390Z,24.00
2019-04-13T00:49:47.146Z,24.40
2019-04-13T00:52:16.902Z,24.00
2019-04-13T00:54:46.702Z,23.90
2019-04-13T00:57:16.451Z,23.90
2019-04-13T00:59:46.575Z,23.90
2019-04-13T01:02:16.335Z,24.00
2019-04-13T01:04:53.313Z,23.90
2019-04-13T01:07:17.580Z,23.90
2019-04-13T01:09:47.428Z,23.90
2019-04-13T01:12:17.206Z,23.90
2019-04-13T01:14:48.361Z,23.90
2019-04-13T01:17:18.338Z,24.00
2019-04-13T01:19:48.095Z,24.20
2019-04-13T01:22:17.872Z,24.00
2019-04-13T01:24:47.634Z,23.90
2019-04-13T01:27:17.386Z,24.00
2019-04-13T01:29:47.157Z,24.00
2019-04-13T01:32:17.423Z,24.00
2019-04-13T01:34:49.480Z,24.00
2019-04-13T01:37:19.234Z,24.00
2019-04-13T01:39:49.511Z,24.00
2019-04-13T01:42:19.541Z,24.00
2019-04-13T01:44:49.302Z,24.00
2019-04-13T01:47:19.073Z,24.00
2019-04-13T01:49:48.823Z,24.00
2019-04-13T01:52:18.578Z,24.00
2019-04-13T01:54:48.346Z,24.00
2019-04-13T01:57:18.243Z,24.00
2019-04-13T01:59:48.007Z,24.00
2019-04-13T02:02:37.377Z,24.00
2019-04-13T02:05:45.641Z,24.10
2019-04-13T02:08:29.976Z,24.00
2019-04-13T02:11:05.369Z,24.10
2019-04-13T02:13:35.682Z,24.00
2019-04-13T02:16:05.641Z,24.00
2019-04-13T02:18:35.559Z,24.00
2019-04-13T02:21:05.541Z,24.00
2019-04-13T02:23:35.298Z,24.00
2019-04-13T02:26:05.457Z,24.00
2019-04-13T02:28:36.326Z,24.10
2019-04-13T02:31:06.186Z,24.10
2019-04-13T02:33:37.680Z,24.10
2019-04-13T02:36:07.476Z,24.10
2019-04-13T02:38:37.250Z,24.10
2019-04-13T02:41:07.007Z,24.10
2019-04-13T02:43:36.761Z,24.10
2019-04-13T02:46:06.523Z,24.10
2019-04-13T02:48:36.975Z,24.10
2019-04-13T02:51:06.827Z,24.10
2019-04-13T02:53:36.624Z,24.10
2019-04-13T02:56:07.741Z,24.10
2019-04-13T02:58:37.562Z,24.10
2019-04-13T03:01:07.393Z,24.10
2019-04-13T03:03:37.253Z,24.10
2019-04-13T03:06:07.018Z,24.10
2019-04-13T03:08:36.845Z,24.20
2019-04-13T03:11:06.626Z,24.10
2019-04-13T03:13:36.570Z,24.10
2019-04-13T03:16:24.051Z,24.10
2019-04-13T03:19:18.734Z,24.10
2019-04-13T03:21:48.574Z,24.10
2019-04-13T03:24:18.728Z,24.10
2019-04-13T03:26:48.481Z,24.10
2019-04-13T03:29:19.018Z,24.10
2019-04-13T03:31:49.463Z,24.10
2019-04-13T03:34:20.262Z,24.10
2019-04-13T03:36:50.020Z,24.10
2019-04-13T03:39:19.795Z,24.20
2019-04-13T03:41:49.573Z,24.20
2019-04-13T03:44:20.458Z,24.20
2019-04-13T03:46:50.674Z,24.20
2019-04-13T03:49:20.434Z,24.20
2019-04-13T03:51:50.208Z,24.20
2019-04-13T03:54:19.973Z,24.40
2019-04-13T03:56:49.828Z,24.20
2019-04-13T03:59:19.638Z,24.20
2019-04-13T04:01:49.411Z,24.20
2019-04-13T04:04:19.174Z,24.20
2019-04-13T04:06:48.932Z,24.20
2019-04-13T04:09:18.750Z,24.10
2019-04-13T04:11:48.610Z,24.20
2019-04-13T04:14:18.366Z,24.20
2019-04-13T04:16:48.197Z,24.20
2019-04-13T04:19:17.946Z,24.20
2019-04-13T04:21:47.701Z,24.20
2019-04-13T04:24:17.538Z,24.20
2019-04-13T04:26:47.306Z,24.20
2019-04-13T04:29:17.063Z,24.20
2019-04-13T04:31:47.286Z,24.20
2019-04-13T04:34:18.229Z,24.20
2019-04-13T04:36:49.046Z,24.20
2019-04-13T04:39:18.813Z,24.20
2019-04-13T04:41:48.573Z,24.20
2019-04-13T04:44:18.365Z,24.20
2019-04-13T04:46:48.123Z,24.20
2019-04-13T04:49:17.885Z,24.20
2019-04-13T04:51:47.642Z,24.20
2019-04-13T04:54:17.467Z,24.30
2019-04-13T04:56:47.228Z,24.20
2019-04-13T04:59:17.041Z,24.20
2019-04-13T05:01:46.814Z,24.30
2019-04-13T05:04:17.126Z,24.30
2019-04-13T05:06:46.889Z,24.30
2019-04-13T05:09:16.946Z,24.30
2019-04-13T05:11:46.775Z,24.30
2019-04-13T05:14:16.562Z,24.30
2019-04-13T05:16:47.194Z,24.30
2019-04-13T05:19:17.022Z,24.20
2019-04-13T05:21:46.829Z,24.30
2019-04-13T05:24:17.350Z,24.30
2019-04-13T05:26:47.366Z,24.30
2019-04-13T05:29:17.130Z,24.30
2019-04-13T05:31:48.314Z,24.30
2019-04-13T05:34:19.268Z,24.30
2019-04-13T05:36:49.085Z,24.30
2019-04-13T05:39:18.877Z,24.30
2019-04-13T05:41:48.676Z,24.30
2019-04-13T05:44:18.435Z,24.30
2019-04-13T05:46:48.192Z,24.30
2019-04-13T05:49:17.986Z,24.30
2019-04-13T05:51:47.790Z,24.30
2019-04-13T05:54:17.562Z,24.40
2019-04-13T05:56:47.358Z,24.30
2019-04-13T05:59:17.118Z,24.30
2019-04-13T06:01:46.881Z,24.30
2019-04-13T06:04:16.657Z,24.40
2019-04-13T06:06:46.496Z,24.30
2019-04-13T06:09:17.035Z,24.40
2019-04-13T06:11:47.475Z,24.30
2019-04-13T06:14:17.243Z,24.70
2019-04-13T06:16:47.065Z,24.30
2019-04-13T06:19:16.948Z,24.30
2019-04-13T06:21:46.769Z,24.30
2019-04-13T06:24:16.602Z,24.30
2019-04-13T06:26:46.358Z,24.30
2019-04-13T06:29:18.291Z,24.30
2019-04-13T06:32:03.364Z,24.30
2019-04-13T06:34:52.754Z,24.30
2019-04-13T06:37:22.753Z,24.30
2019-04-13T06:39:52.598Z,24.30
2019-04-13T06:42:22.418Z,24.30
2019-04-13T06:44:52.189Z,24.30
2019-04-13T06:47:22.232Z,24.30
2019-04-13T06:49:51.995Z,24.30
2019-04-13T06:52:22.038Z,24.30
2019-04-13T06:54:51.790Z,24.30
2019-04-13T06:57:22.642Z,24.30
2019-04-13T06:59:52.497Z,24.30
2019-04-13T07:02:22.271Z,24.30
2019-04-13T07:04:52.051Z,24.30
2019-04-13T07:07:45.614Z,24.30
2019-04-13T07:10:30.969Z,24.30
2019-04-13T07:13:09.565Z,24.20
2019-04-13T07:15:46.082Z,24.20
2019-04-13T07:18:11.212Z,24.20
2019-04-13T07:20:40.986Z,24.20
2019-04-13T07:23:10.815Z,24.30
2019-04-13T07:25:40.571Z,24.20
2019-04-13T07:28:10.613Z,24.20
2019-04-13T07:30:40.377Z,24.20
2019-04-13T07:33:12.484Z,24.20
2019-04-13T07:35:43.646Z,24.20
2019-04-13T07:38:15.689Z,24.20
2019-04-13T07:40:44.911Z,24.20
2019-04-13T07:43:14.752Z,24.20
2019-04-13T07:46:03.679Z,24.20
2019-04-13T07:48:56.569Z,24.20
2019-04-13T07:51:34.409Z,24.20
2019-04-13T07:54:06.708Z,24.30
2019-04-13T07:56:35.718Z,24.20
2019-04-13T07:59:05.578Z,24.20
2019-04-13T08:01:35.722Z,24.20
2019-04-13T08:04:06.962Z,24.20
2019-04-13T08:06:37.072Z,24.20
2019-04-13T08:09:07.709Z,24.20
2019-04-13T08:11:37.702Z,24.20
2019-04-13T08:14:13.288Z,24.20
2019-04-13T08:16:43.122Z,24.20
2019-04-13T08:19:16.485Z,24.20
2019-04-13T08:21:46.284Z,24.20
2019-04-13T08:24:16.045Z,24.20
2019-04-13T08:26:46.422Z,24.20
2019-04-13T08:29:17.273Z,24.20
2019-04-13T08:31:47.902Z,24.20
2019-04-13T08:34:18.955Z,24.20
2019-04-13T08:36:49.738Z,24.10
2019-04-13T08:39:20.922Z,24.20
2019-04-13T08:41:51.693Z,24.10
2019-04-13T08:44:22.242Z,24.10
2019-04-13T08:46:52.007Z,24.10
2019-04-13T08:49:21.811Z,24.20
2019-04-13T08:51:51.587Z,24.10
2019-04-13T08:54:21.342Z,24.10
2019-04-13T08:56:51.098Z,24.20
2019-04-13T08:59:22.537Z,24.10
2019-04-13T09:01:52.488Z,24.10
2019-04-13T09:04:22.285Z,24.10
2019-04-13T09:06:52.042Z,24.10
2019-04-13T09:09:21.794Z,24.10
2019-04-13T09:11:51.592Z,24.10
2019-04-13T09:14:22.014Z,24.10
2019-04-13T09:16:53.649Z,24.10
2019-04-13T09:19:51.806Z,24.10
2019-04-13T09:22:24.525Z,24.10
2019-04-13T09:24:54.463Z,24.10
2019-04-13T09:27:24.238Z,24.10
2019-04-13T09:29:53.991Z,24.10
2019-04-13T09:32:24.770Z,24.10
2019-04-13T09:34:54.789Z,24.10
2019-04-13T09:37:25.482Z,24.10
2019-04-13T09:39:55.478Z,24.10
2019-04-13T09:42:25.426Z,24.10
2019-04-13T09:44:55.255Z,24.10
2019-04-13T09:47:27.431Z,24.00
2019-04-13T09:50:00.060Z,24.00
2019-04-13T09:52:31.215Z,24.00
2019-04-13T09:55:00.553Z,24.00
2019-04-13T09:57:30.387Z,24.00
2019-04-13T10:00:00.173Z,24.00
2019-04-13T10:02:29.939Z,24.00
2019-04-13T10:04:59.698Z,24.00
2019-04-13T10:07:29.454Z,24.10
2019-04-13T10:09:59.213Z,24.00
2019-04-13T10:12:50.131Z,24.00
2019-04-13T10:15:54.158Z,24.00
2019-04-13T10:18:29.875Z,24.00
2019-04-13T10:20:59.642Z,24.00
2019-04-13T10:23:30.047Z,24.00
2019-04-13T10:26:01.273Z,24.00
2019-04-13T10:28:31.296Z,24.00
2019-04-13T10:31:01.050Z,24.00
2019-04-13T10:33:32.146Z,24.00
2019-04-13T10:36:02.506Z,24.00
2019-04-13T10:38:32.978Z,24.00
2019-04-13T10:41:02.726Z,24.00
2019-04-13T10:43:32.494Z,24.00
2019-04-13T10:46:28.657Z,24.00
2019-04-13T10:49:02.667Z,24.00
2019-04-13T10:51:50.414Z,24.00
2019-04-13T10:54:20.186Z,24.00
2019-04-13T10:56:49.947Z,24.00
2019-04-13T10:59:20.031Z,23.90
2019-04-13T11:01:50.261Z,23.90
2019-04-13T11:04:20.029Z,23.90
2019-04-13T11:06:52.612Z,23.90
2019-04-13T11:09:22.140Z,23.90
2019-04-13T11:11:52.253Z,23.90
2019-04-13T11:14:22.016Z,23.90
2019-04-13T11:16:53.084Z,23.90
2019-04-13T11:19:23.574Z,23.90
2019-04-13T11:21:54.297Z,23.90
2019-04-13T11:24:24.138Z,23.90
2019-04-13T11:26:53.896Z,23.80
2019-04-13T11:29:23.650Z,23.90
2019-04-13T11:31:55.551Z,23.90
2019-04-13T11:34:29.050Z,23.90
2019-04-13T11:36:57.257Z,23.90
2019-04-13T11:39:33.948Z,23.90
2019-04-13T11:42:07.630Z,23.90
2019-04-13T11:44:47.971Z,23.90
2019-04-13T11:47:23.549Z,23.90
2019-04-13T11:49:56.759Z,23.90
2019-04-13T11:52:24.911Z,23.90
2019-04-13T11:54:54.666Z,23.90
2019-04-13T11:57:24.513Z,23.90
2019-04-13T11:59:55.259Z,23.90
2019-04-13T12:02:57.212Z,23.90
2019-04-13T12:05:34.414Z,23.90
2019-04-13T12:08:08.934Z,23.80
2019-04-13T12:11:00.664Z,23.80
2019-04-13T12:13:43.158Z,23.80
2019-04-13T12:16:29.686Z,23.80
2019-04-13T12:19:09.873Z,23.80
2019-04-13T12:22:08.310Z,23.80
2019-04-13T12:24:38.497Z,23.80
2019-04-13T12:27:08.398Z,23.80
2019-04-13T12:29:39.291Z,23.80
2019-04-13T12:32:17.539Z,23.70
2019-04-13T12:34:47.305Z,23.80
2019-04-13T12:37:17.134Z,23.70
2019-04-13T12:39:48.788Z,23.70
2019-04-13T12:42:19.618Z,23.70
2019-04-13T12:44:50.362Z,23.70
2019-04-13T12:47:22.114Z,23.70
2019-04-13T12:49:52.219Z,23.70
2019-04-13T12:52:22.042Z,23.70
2019-04-13T12:54:52.562Z,23.80
2019-04-13T12:57:22.381Z,23.70
2019-04-13T12:59:52.258Z,23.70
2019-04-13T13:02:47.431Z,23.70
2019-04-13T13:05:23.666Z,23.80
2019-04-13T13:07:53.918Z,23.70
2019-04-13T13:10:25.305Z,23.80
2019-04-13T13:12:58.167Z,23.80
2019-04-13T13:15:26.957Z,23.80
2019-04-13T13:17:56.721Z,23.70
2019-04-13T13:20:26.550Z,23.80
2019-04-13T13:22:56.301Z,23.70
2019-04-13T13:25:26.931Z,23.70
2019-04-13T13:27:56.735Z,23.80
2019-04-13T13:30:26.518Z,23.70
2019-04-13T13:32:59.159Z,23.80
2019-04-13T13:35:32.381Z,23.70
2019-04-13T13:38:04.698Z,23.80
2019-04-13T13:40:32.936Z,23.70
2019-04-13T13:43:04.309Z,23.70
2019-04-13T13:45:34.071Z,23.70
2019-04-13T13:48:03.898Z,23.70
2019-04-13T13:50:33.694Z,23.70
2019-04-13T13:53:03.530Z,23.70
2019-04-13T13:55:36.186Z,23.70
2019-04-13T13:58:16.042Z,23.70
2019-04-13T14:01:13.946Z,23.70
2019-04-13T14:03:43.702Z,23.70
2019-04-13T14:06:13.535Z,23.70
2019-04-13T14:08:44.706Z,23.70
2019-04-13T14:11:15.787Z,23.70
2019-04-13T14:13:45.555Z,23.70
2019-04-13T14:16:15.323Z,23.70
2019-04-13T14:18:45.160Z,23.70
2019-04-13T14:21:14.930Z,23.70
2019-04-13T14:23:44.766Z,23.70
2019-04-13T14:26:14.525Z,23.70
2019-04-13T14:28:44.398Z,23.70
2019-04-13T14:31:14.307Z,23.70
2019-04-13T14:33:45.460Z,24.10
2019-04-13T14:36:15.482Z,23.70
2019-04-13T14:38:45.245Z,23.70
2019-04-13T14:41:16.023Z,23.70
2019-04-13T14:43:48.162Z,23.70
2019-04-13T14:46:17.562Z,23.70
2019-04-13T14:48:49.461Z,23.70
2019-04-13T14:51:21.183Z,23.70
2019-04-13T14:53:51.338Z,23.70
2019-04-13T14:56:21.166Z,23.70
2019-04-13T14:58:51.071Z,23.70
2019-04-13T15:01:21.008Z,23.60
2019-04-13T15:03:50.762Z,23.70
2019-04-13T15:06:21.248Z,23.60
2019-04-13T15:08:53.071Z,23.60
2019-04-13T15:11:22.857Z,23.60
2019-04-13T15:13:53.660Z,23.60
2019-04-13T15:16:26.288Z,23.60
2019-04-13T15:19:26.311Z,23.60
2019-04-13T15:21:46.132Z,23.50
2019-04-13T15:24:19.330Z,23.60
2019-04-13T15:26:51.741Z,23.60
2019-04-13T15:29:21.250Z,23.60
2019-04-13T15:31:53.634Z,23.60
2019-04-13T15:34:29.041Z,23.60
2019-04-13T15:36:58.330Z,23.60
2019-04-13T15:39:27.351Z,23.60
2019-04-13T15:42:10.339Z,23.60
2019-04-13T15:44:31.300Z,23.60
2019-04-13T15:47:06.076Z,23.60
2019-04-13T15:49:33.966Z,23.60
2019-04-13T15:52:03.833Z,23.60
2019-04-13T15:54:33.612Z,23.60
2019-04-13T15:57:03.686Z,23.60
2019-04-13T15:59:35.210Z,23.60
2019-04-13T16:02:05.942Z,23.60
2019-04-13T16:04:35.911Z,23.60
2019-04-13T16:07:05.751Z,23.60
2019-04-13T16:09:57.690Z,23.60
2019-04-13T16:12:34.229Z,23.60
2019-04-13T16:15:05.454Z,23.60
2019-04-13T16:17:35.990Z,23.60
2019-04-13T16:20:07.530Z,23.60
2019-04-13T16:22:38.464Z,23.50
2019-04-13T16:25:09.964Z,23.50
2019-04-13T16:27:47.160Z,23.50
2019-04-13T16:30:36.935Z,23.50
2019-04-13T16:33:28.077Z,23.50
2019-04-13T16:36:04.310Z,23.50
2019-04-13T16:38:34.556Z,23.50
2019-04-13T16:41:06.528Z,23.50
2019-04-13T16:43:40.893Z,23.50
2019-04-13T16:46:16.201Z,23.50
2019-04-13T16:49:14.617Z,23.50
2019-04-13T16:52:04.957Z,23.50
2019-04-13T16:55:05.925Z,23.60
2019-04-13T16:57:56.894Z,23.60
2019-04-13T17:00:44.330Z,23.60
2019-04-13T17:03:23.679Z,23.60
2019-04-13T17:05:54.281Z,23.60
2019-04-13T17:08:24.073Z,23.60
2019-04-13T17:10:54.158Z,23.60
2019-04-13T17:13:24.066Z,23.50
2019-04-13T17:15:54.161Z,23.50
2019-04-13T17:18:31.678Z,23.50
2019-04-13T17:21:19.182Z,23.50
2019-04-13T17:24:07.411Z,23.60
2019-04-13T17:26:47.999Z,23.50
2019-04-13T17:29:36.013Z,23.50
2019-04-13T17:32:16.301Z,23.60
2019-04-13T17:34:52.835Z,23.60
2019-04-13T17:37:23.472Z,23.60
2019-04-13T17:39:54.726Z,23.60
2019-04-13T17:42:46.631Z,23.70
2019-04-13T17:45:54.852Z,23.60
2019-04-13T17:48:44.018Z,23.60
2019-04-13T17:51:31.656Z,23.60
2019-04-13T17:54:21.055Z,23.60
2019-04-13T17:56:51.343Z,23.70
2019-04-13T17:59:45.061Z,23.60
2019-04-13T18:02:36.139Z,23.70
2019-04-13T18:05:25.042Z,23.70
2019-04-13T18:08:05.895Z,23.70
2019-04-13T18:10:50.349Z,23.70
2019-04-13T18:13:47.720Z,23.80
2019-04-13T18:16:21.387Z,23.60
2019-04-13T18:18:58.433Z,23.60
2019-04-13T18:21:30.686Z,23.70
2019-04-13T18:24:01.470Z,23.60
2019-04-13T18:26:31.436Z,23.70
2019-04-13T18:29:03.059Z,23.70
2019-04-13T18:31:33.718Z,23.70
2019-04-13T18:34:06.153Z,23.70
2019-04-13T18:36:38.399Z,23.70
2019-04-13T18:39:09.130Z,23.80
2019-04-13T18:41:39.552Z,23.80
2019-04-13T18:44:11.357Z,23.80
2019-04-13T18:46:42.771Z,23.80
2019-04-13T18:49:13.804Z,23.80
2019-04-13T18:51:44.167Z,23.80
2019-04-13T18:54:14.375Z,23.90
2019-04-13T18:56:44.142Z,23.80
2019-04-13T18:59:15.129Z,23.80
2019-04-13T19:01:45.245Z,23.80
2019-04-13T19:04:15.150Z,23.90
2019-04-13T19:06:44.917Z,23.90
2019-04-13T19:09:14.913Z,23.90
2019-04-13T19:11:44.670Z,23.90
2019-04-13T19:14:14.435Z,23.90
2019-04-13T19:16:45.949Z,23.90
2019-04-13T19:19:15.717Z,23.90
2019-04-13T19:21:45.485Z,23.90
2019-04-13T19:24:15.279Z,24.20
2019-04-13T19:26:45.087Z,23.90
2019-04-13T19:29:14.875Z,23.90
2019-04-13T19:31:45.589Z,23.90
2019-04-13T19:34:15.874Z,23.90
2019-04-13T19:36:45.658Z,23.90
2019-04-13T19:39:15.419Z,23.90
2019-04-13T19:41:45.246Z,23.90
2019-04-13T19:44:15.085Z,24.00
2019-04-13T19:46:46.153Z,24.00
2019-04-13T19:49:15.908Z,24.00
2019-04-13T19:51:55.541Z,24.00
2019-04-13T19:54:25.614Z,24.00
2019-04-13T19:56:55.474Z,24.00
2019-04-13T19:59:25.238Z,24.00
2019-04-13T20:01:55.004Z,24.00
2019-04-13T20:04:24.758Z,24.00
2019-04-13T20:06:55.914Z,24.00
2019-04-13T20:09:26.631Z,24.10
2019-04-13T20:11:56.391Z,24.10
2019-04-13T20:14:26.274Z,24.00
2019-04-13T20:16:56.197Z,24.40
2019-04-13T20:19:25.969Z,24.00
2019-04-13T20:21:55.746Z,24.10
2019-04-13T20:24:25.637Z,24.10
2019-04-13T20:26:55.860Z,24.10
2019-04-13T20:29:27.437Z,24.10
2019-04-13T20:31:59.153Z,24.10
2019-04-13T20:34:31.619Z,24.10
2019-04-13T20:37:01.637Z,24.10
2019-04-13T20:39:33.115Z,24.10
2019-04-13T20:42:06.625Z,24.10
2019-04-13T20:44:34.559Z,24.10
2019-04-13T20:47:04.697Z,24.10
2019-04-13T20:49:36.964Z,24.10
2019-04-13T20:52:06.722Z,24.50
2019-04-13T20:54:36.490Z,24.10
2019-04-13T20:57:06.518Z,24.20
2019-04-13T20:59:36.838Z,24.20
2019-04-13T21:02:09.025Z,24.20
2019-04-13T21:04:39.224Z,24.20
2019-04-13T21:07:09.531Z,24.20
2019-04-13T21:09:39.497Z,24.20
2019-04-13T21:12:09.924Z,24.30
2019-04-13T21:14:43.713Z,24.30
2019-04-13T21:17:11.368Z,24.30
2019-04-13T21:19:41.877Z,24.30
2019-04-13T21:22:11.699Z,24.30
2019-04-13T21:24:41.657Z,24.20
2019-04-13T21:27:11.780Z,24.20
2019-04-13T21:29:41.562Z,24.30
2019-04-13T21:32:14.314Z,24.30
2019-04-13T21:34:44.620Z,24.30
2019-04-13T21:37:15.876Z,24.30
2019-04-13T21:39:46.184Z,24.30
2019-04-13T21:42:16.045Z,24.30
2019-04-13T21:44:48.205Z,24.30
2019-04-13T21:47:18.453Z,24.30
2019-04-13T21:49:49.137Z,24.30
2019-04-13T21:52:42.921Z,24.40
2019-04-13T21:55:33.228Z,24.40
2019-04-13T21:58:03.467Z,24.40
2019-04-13T22:00:51.288Z,24.50
2019-04-13T22:03:23.059Z,24.50
2019-04-13T22:05:53.286Z,24.50
2019-04-13T22:08:23.135Z,24.50
2019-04-13T22:10:53.106Z,24.50
2019-04-13T22:13:22.874Z,24.50
2019-04-13T22:15:52.980Z,24.50
2019-04-13T22:18:23.503Z,24.60
2019-04-13T22:20:53.748Z,24.60
2019-04-13T22:23:23.870Z,24.60
2019-04-13T22:25:53.737Z,24.60
2019-04-13T22:28:27.840Z,24.50
2019-04-13T22:31:11.734Z,24.50
2019-04-13T22:33:42.170Z,24.60
2019-04-13T22:36:33.102Z,24.60
2019-04-13T22:39:05.385Z,24.60
2019-04-13T22:41:35.434Z,24.60
2019-04-13T22:44:05.279Z,24.60
2019-04-13T22:46:35.042Z,24.60
2019-04-13T22:49:27.823Z,24.60
2019-04-13T22:52:30.027Z,24.60
2019-04-13T22:55:12.729Z,24.70
2019-04-13T22:57:44.111Z,24.70
2019-04-13T23:00:21.677Z,24.70
2019-04-13T23:02:52.422Z,24.70
2019-04-13T23:05:22.311Z,24.70
2019-04-13T23:07:52.382Z,24.80
2019-04-13T23:10:24.736Z,25.10
2019-04-13T23:12:55.171Z,24.80
2019-04-13T23:15:32.209Z,24.80
2019-04-13T23:17:57.363Z,24.80
2019-04-13T23:20:27.795Z,24.80
2019-04-13T23:22:58.480Z,24.90
2019-04-13T23:25:29.077Z,24.80
2019-04-13T23:27:59.188Z,24.80
2019-04-13T23:30:29.219Z,24.70
2019-04-13T23:33:01.748Z,24.80
2019-04-13T23:35:32.347Z,24.80
2019-04-13T23:38:02.905Z,24.90
2019-04-13T23:40:33.204Z,24.90
2019-04-13T23:43:03.922Z,24.90
2019-04-13T23:45:38.562Z,24.90
2019-04-13T23:48:09.502Z,24.90
2019-04-13T23:50:39.482Z,24.90
2019-04-13T23:53:09.729Z,24.90
2019-04-13T23:55:46.513Z,24.90
2019-04-13T23:58:25.742Z,24.90
